Parandowski — 9HA4641 — position and weather

sailwx.info

Track history (hours):
 
Tides and Currents Weather Stations Pressure Air Temp Water Temp Dewpoint Dewpoint Depression Visibility Wind Speed Wind Dir Waves Ship Positions

Parandowski

Last reported at 2018-Feb-16 12:21 UTC. Time now 2018-Feb-20 07:06 UTC.
Position N 36°36' E 014°34'.

Length 200 m; draft 7.8 m.

Type: Ship. MMSI: 248403000.

Date/timePositionNaut miles runAvg speedWind from/ knotsBaromVisibWave heightAir tempDewpointWater temp
2018-Feb-16 12:21N 36°36' E 014°34'513.8
2018-Feb-16 11:59N 36°37' E 014°28'713.6
2018-Feb-16 11:30N 36°38' E 014°20'713.4
2018-Feb-16 11:00N 36°39' E 014°11'713.5
2018-Feb-16 10:30N 36°40' E 014°03'713.6
2018-Feb-16 10:00N 36°42' E 013°55'713.5
2018-Feb-16 09:30N 36°43' E 013°46'713.5
2018-Feb-16 09:00N 36°44' E 013°38'713.7
2018-Feb-16 08:30N 36°45' E 013°30'  
2018-Feb-13 15:42N 35°60' W 005°11'315.7
2018-Feb-13 15:31N 35°59' W 005°14'815.6
2018-Feb-13 15:00N 35°58' W 005°24'  
2018-Feb-07 23:54N 38°21' W 010°05'2113.9
2018-Feb-07 22:25N 38°42' W 010°07'714.1
2018-Feb-07 21:55N 38°49' W 010°07'614.1
2018-Feb-07 21:31N 38°55' W 010°07'  
Track history (hours):
 
Tides and Currents Weather Stations Pressure Air Temp Water Temp Dewpoint Dewpoint Depression Visibility Wind Speed Wind Dir Waves Ship Positions

Parandowski

Last reported at 2018-Feb-16 12:21 UTC. Time now 2018-Feb-20 07:06 UTC.
Position N 36°36' E 014°34'.

Length 200 m; draft 7.8 m.

Type: Ship. MMSI: 248403000.

Date/timePositionNaut miles runAvg speedWind from/ knotsBaromVisibWave heightAir tempDewpointWater temp
2018-Feb-16 12:21N 36°36' E 014°34'513.8
2018-Feb-16 11:59N 36°37' E 014°28'713.6
2018-Feb-16 11:30N 36°38' E 014°20'713.4
2018-Feb-16 11:00N 36°39' E 014°11'713.5
2018-Feb-16 10:30N 36°40' E 014°03'713.6
2018-Feb-16 10:00N 36°42' E 013°55'713.5
2018-Feb-16 09:30N 36°43' E 013°46'713.5
2018-Feb-16 09:00N 36°44' E 013°38'713.7
2018-Feb-16 08:30N 36°45' E 013°30'  
2018-Feb-13 15:42N 35°60' W 005°11'315.7
2018-Feb-13 15:31N 35°59' W 005°14'815.6
2018-Feb-13 15:00N 35°58' W 005°24'  
2018-Feb-07 23:54N 38°21' W 010°05'2113.9
2018-Feb-07 22:25N 38°42' W 010°07'714.1
2018-Feb-07 21:55N 38°49' W 010°07'614.1
2018-Feb-07 21:31N 38°55' W 010°07'  

Dump ship's entire track history